McCarran International Airport
KLAS : rendu visible

Aérodrome :











RETROUVEZ-NOUS SUR...

 
LOGIN :

S'inscrire | Disclaimer

   EN    FR    IT 

 









Légende :    VFR   VFR Marginal   IFR   IFR Intensif   IFR Très Intensif
Visi : 
Plafond : 
>= 8 km
>= 3000ft
5 à 8 km
1000 à 3000 ft
1500m à 5 km
500 à 1000 ft
800 à 1500m
200 à 500 ft
< 800m
< 200 ft
Symboles :   Orages  Brouillard  Fortes neiges  Fortes précipitations  Vent > 20 kt






- Altitude de l'aérodrome : 2181 ft
- Code IATA : LAS


KLAS - McCarran International

DERNIER METAR :
  • 222256Z 00000KT 10SM FEW035 SCT060 14/04 A3016 RMK AO2 SLP211 T01440044

METARs EXPIRÉS :
  • 222156Z VRB05KT 10SM FEW035 SCT060 14/05 A3016 RMK AO2 SLP212 T01390050
  • 222056Z VRB03KT 10SM FEW035 SCT060 13/05 A3017 RMK AO2 SLP216 T01330050 58020

TAF KLAS
Valide du 22 à 22h jusqu'au 24 à 00h UTC


222207Z 2222/2324 08005KT P6SM FEW035 SCT060
FM230300 VRB05KT P6SM SKC
FM231900 04007KT P6SM SKC



MET'MAP, la Météo Aéronautique d'un coup d'oeil ! - Copyright ORBIFLY Décembre 2007 - Disclaimer

ORBIFLY MET'MAP TEAM :

Programmation & Développement : Alexandra Zaïnal
Conception & Développement : Baudouin d'Aumeries
Co-Programmation & Développement : Marc-Olivier Méhu
Soutien technique & logistique : Manuel Goepfert

Contact : metmap@orbifly.com




SOURCES & CREDITS :

   NOAA       Earth
Advisory